WeatherOLA & Area Weather Station Summaries and History

Weather history for Indianola, Kingston, Poulsbo, Bainbridge Island, Silverdale other area weather stations. Select a station for detailed historical weather information of any date and time in five minute intervals. Great for looking up the timing of interesting weather events that are closest to you.

Station Historical Data
 
Daily Summary for January 24, 2019 Units:  English    Metric   Both
« Previous Day
Next Day »
Daily Weekly Monthly Yearly Custom
  Current: High: Low: Average:
Temperature: 6.0 °F TemperatureC °F 5.8 °F 6 °F
Dew Point: 5.3 °F DewpointC °F 4.9 °F 5.3 °F
Humidity: 95% Humidity% 94% 93%
Wind Speed: 0.0mph WindSpeedKMHmph 0.0mph 0mph
Wind Gust: 0.0mph WindSpeedGustKMHmph - -
WindCalm - - ESE
Pressure: 1031.6 in PressurehPa in 1031.3 in -
Precipitation: 0.0 in      
Historical Graphs
 
 
Tabular Data for January 24, 2019
Time Temperature Dew Point Pressure Wind Wind Speed Wind Gust Humidity Rainfall Rate (Hourly) solar Conditions
TemperatureC °F DewpointC °F PressurehPa in Calm     Humidity% HourlyPrecipMM in SoftwareType W/m2 Conditions
00:04 6.5 °F 5.8 °F 1031.7 in Calm     95% 0.0 in WeatherDisplay:10.37 W/m2 RA
00:09 6.5 °F 5.8 °F 1031.5 in Calm     95% 0.0 in WeatherDisplay:10.37 W/m2 RA
00:14 6.4 °F 5.7 °F 1031.6 in Calm     95% 0.0 in WeatherDisplay:10.37 W/m2 CLR
00:19 6.4 °F 5.7 °F 1031.5 in Calm     95% 0.0 in WeatherDisplay:10.37 W/m2 CLR
00:24 6.4 °F 5.7 °F 1031.5 in Calm     95% 0.0 in WeatherDisplay:10.37 W/m2 CLR
00:29 6.4 °F 5.7 °F 1031.5 in Calm     95% 0.0 in WeatherDisplay:10.37 W/m2 CLR
00:34 6.4 °F 5.7 °F 1031.4 in Calm     95% 0.0 in WeatherDisplay:10.37 W/m2 CLR
00:39 6.4 °F 5.7 °F 1031.4 in Calm     95% 0.0 in WeatherDisplay:10.37 W/m2 CLR
00:44 6.3 °F 5.6 °F 1031.5 in Calm     95% 0.0 in WeatherDisplay:10.37 W/m2 CLR
00:49 6.4 °F 5.7 °F 1031.9 in Calm     95% 0.0 in WeatherDisplay:10.37 W/m2 CLR
00:54 6.3 °F 5.6 °F 1032.0 in Calm     95% 0.0 in WeatherDisplay:10.37 W/m2 CLR
00:59 6.3 °F 5.6 °F 1031.8 in Calm     95% 0.0 in WeatherDisplay:10.37 W/m2 CLR
01:04 6.3 °F 5.6 °F 1031.8 in Calm     95% 0.0 in WeatherDisplay:10.37 W/m2 CLR
01:09 6.3 °F 5.6 °F 1032.0 in Calm     95% 0.0 in WeatherDisplay:10.37 W/m2 CLR
01:14 6.3 °F 5.6 °F 1032.0 in Calm     95% 0.0 in WeatherDisplay:10.37 W/m2 CLR
01:19 6.3 °F 5.6 °F 1032.0 in Calm     95% 0.0 in WeatherDisplay:10.37 W/m2 CLR
01:24 6.3 °F 5.6 °F 1032.0 in Calm     95% 0.0 in WeatherDisplay:10.37 W/m2 CLR
01:29 6.3 °F 5.6 °F 1032.2 in Calm     95% 0.0 in WeatherDisplay:10.37 W/m2 CLR
01:34 6.3 °F 5.6 °F 1032.4 in Calm     95% 0.0 in WeatherDisplay:10.37 W/m2 CLR
01:39 6.3 °F 5.6 °F 1032.4 in Calm     95% 0.0 in WeatherDisplay:10.37 W/m2 CLR
01:44 6.3 °F 5.6 °F 1032.4 in Calm     95% 0.0 in WeatherDisplay:10.37 W/m2 CLR
01:49 6.3 °F 5.6 °F 1032.3 in Calm     95% 0.0 in WeatherDisplay:10.37 W/m2 CLR
01:54 6.3 °F 5.6 °F 1032.2 in Calm     95% 0.0 in WeatherDisplay:10.37 W/m2 CLR
01:59 6.3 °F 5.6 °F 1032.1 in Calm     95% 0.0 in WeatherDisplay:10.37 W/m2 CLR
02:04 6.3 °F 5.6 °F 1032.0 in Calm     95% 0.0 in WeatherDisplay:10.37 W/m2 CLR
02:09 6.3 °F 5.6 °F 1032.3 in Calm     95% 0.0 in WeatherDisplay:10.37 W/m2 CLR
02:14 6.3 °F 5.6 °F 1032.4 in Calm     95% 0.0 in WeatherDisplay:10.37 W/m2 CLR
02:19 6.3 °F 5.6 °F 1032.3 in Calm     95% 0.0 in WeatherDisplay:10.37 W/m2 CLR
02:24 6.3 °F 5.6 °F 1032.2 in Calm     95% 0.0 in WeatherDisplay:10.37 W/m2 CLR
02:29 6.3 °F 5.4 °F 1032.0 in Calm     94% 0.0 in WeatherDisplay:10.37 W/m2 CLR
02:34 6.2 °F 5.3 °F 1031.8 in Calm     94% 0.0 in WeatherDisplay:10.37 W/m2 CLR
02:39 6.2 °F 5.3 °F 1031.9 in Calm     94% 0.0 in WeatherDisplay:10.37 W/m2 CLR
02:44 6.1 °F 5.4 °F 1031.8 in Calm     95% 0.0 in WeatherDisplay:10.37 W/m2 CLR
02:49 6.1 °F 5.3 °F 1032.0 in Calm     95% 0.0 in WeatherDisplay:10.37 W/m2 CLR
02:54 5.9 °F 5.1 °F 1032.3 in Calm     94% 0.0 in WeatherDisplay:10.37 W/m2 CLR
02:59 5.9 °F 5.0 °F 1032.0 in Calm     94% 0.0 in WeatherDisplay:10.37 W/m2 CLR
03:04 5.8 °F 4.9 °F 1032.1 in Calm     94% 0.0 in WeatherDisplay:10.37 W/m2 CLR
03:09 5.8 °F 4.9 °F 1032.0 in Calm     94% 0.0 in WeatherDisplay:10.37 W/m2 CLR
03:14 5.8 °F 4.9 °F 1032.0 in Calm     94% 0.0 in WeatherDisplay:10.37 W/m2 CLR
03:19 5.8 °F 4.9 °F 1032.0 in Calm     94% 0.0 in WeatherDisplay:10.37 W/m2 CLR
03:24 5.8 °F 4.9 °F 1031.8 in Calm     94% 0.0 in WeatherDisplay:10.37 W/m2 CLR
03:29 5.8 °F 4.9 °F 1032.0 in Calm     94% 0.0 in WeatherDisplay:10.37 W/m2 CLR
03:34 5.8 °F 4.9 °F 1031.8 in Calm     94% 0.0 in WeatherDisplay:10.37 W/m2 CLR
03:39 5.9 °F 5.0 °F 1031.5 in Calm     94% 0.0 in WeatherDisplay:10.37 W/m2 CLR
03:44 5.9 °F 5.0 °F 1031.5 in Calm     94% 0.0 in WeatherDisplay:10.37 W/m2 CLR
03:49 5.9 °F 5.1 °F 1031.5 in Calm     94% 0.0 in WeatherDisplay:10.37 W/m2 CLR
03:54 5.9 °F 5.2 °F 1031.6 in Calm     95% 0.0 in WeatherDisplay:10.37 W/m2 CLR
03:59 6.0 °F 5.3 °F 1031.6 in Calm     95% 0.0 in WeatherDisplay:10.37 W/m2 CLR
04:04 6.0 °F 5.3 °F 1031.6 in Calm     95% 0.0 in WeatherDisplay:10.37 W/m2 CLR
04:09 6.0 °F 5.3 °F 1031.7 in Calm     95% 0.0 in WeatherDisplay:10.37 W/m2 CLR
04:14 6.0 °F 5.3 °F 1031.6 in Calm     95% 0.0 in WeatherDisplay:10.37 W/m2 CLR
04:19 6.0 °F 5.3 °F 1031.6 in Calm     95% 0.0 in WeatherDisplay:10.37 W/m2 CLR
04:24 6.1 °F 5.3 °F 1031.4 in Calm     95% 0.0 in WeatherDisplay:10.37 W/m2 CLR
04:29 6.0 °F 5.3 °F 1031.3 in Calm     95% 0.0 in WeatherDisplay:10.37 W/m2 CLR
04:34 6.1 °F 5.3 °F 1031.3 in Calm     95% 0.0 in WeatherDisplay:10.37 W/m2 CLR
04:39 6.1 °F 5.3 °F 1031.3 in Calm     95% 0.0 in WeatherDisplay:10.37 W/m2 CLR
04:44 6.1 °F 5.3 °F 1031.4 in Calm     95% 0.0 in WeatherDisplay:10.37 W/m2 CLR
04:49 6.0 °F 5.3 °F 1031.5 in Calm     95% 0.0 in WeatherDisplay:10.37 W/m2 CLR
04:54 6.0 °F 5.3 °F 1031.4 in Calm     95% 0.0 in WeatherDisplay:10.37 W/m2 CLR
04:59 6.0 °F 5.3 °F 1031.5 in Calm     95% 0.0 in WeatherDisplay:10.37 W/m2 CLR
05:04 6.0 °F 5.3 °F 1031.5 in Calm     95% 0.0 in WeatherDisplay:10.37 W/m2 CLR
05:09 6.0 °F 5.3 °F 1031.7 in Calm     95% 0.0 in WeatherDisplay:10.37 W/m2 CLR
05:14 6.0 °F 5.3 °F 1031.7 in Calm     95% 0.0 in WeatherDisplay:10.37 W/m2 CLR
05:19 6.0 °F 5.3 °F 1031.7 in ESE 1.9 mph   95% 0.0 in WeatherDisplay:10.37 W/m2 CLR
05:24 6.0 °F 5.3 °F 1031.8 in Calm     95% 0.0 in WeatherDisplay:10.37 W/m2 CLR
05:29 6.0 °F 5.3 °F 1031.8 in Calm     95% 0.0 in WeatherDisplay:10.37 W/m2 CLR
05:34 6.0 °F 5.3 °F 1031.6 in Calm     95% 0.0 in WeatherDisplay:10.37 W/m2 CLR
Indianola, WA, USA
Compliments of Weather Underground - 1.25 mb